createdAt,value
2019-03-23T00:01:13.624Z,8.75
2019-03-23T00:03:44.600Z,10.38
2019-03-23T00:06:16.308Z,11.40
2019-03-23T00:08:47.164Z,17.57
2019-03-23T00:11:17.267Z,8.00
2019-03-23T00:13:47.776Z,7.97
2019-03-23T00:16:23.376Z,9.08
2019-03-23T00:18:59.295Z,9.80
2019-03-23T00:21:31.298Z,8.37
2019-03-23T00:24:01.284Z,8.08
2019-03-23T00:26:32.920Z,10.80
2019-03-23T00:29:02.870Z,9.73
2019-03-23T00:31:33.052Z,9.20
2019-03-23T00:34:03.809Z,19.98
2019-03-23T00:36:41.498Z,16.15
2019-03-23T00:39:06.568Z,12.80
2019-03-23T00:41:36.620Z,10.75
2019-03-23T00:44:08.376Z,11.78
2019-03-23T00:46:39.345Z,9.80
2019-03-23T00:49:12.086Z,11.68
2019-03-23T00:51:45.208Z,13.00
2019-03-23T00:54:16.000Z,10.23
2019-03-23T00:56:49.153Z,11.57
2019-03-23T00:59:19.320Z,5.75
2019-03-23T01:01:53.160Z,8.68
2019-03-23T01:04:28.960Z,10.82
2019-03-23T01:06:59.074Z,11.90
2019-03-23T01:09:29.199Z,9.03
2019-03-23T01:12:00.971Z,8.23
2019-03-23T01:14:30.652Z,9.63
2019-03-23T01:17:02.364Z,12.13
2019-03-23T01:19:32.324Z,7.08
2019-03-23T01:22:02.179Z,11.68
2019-03-23T01:24:37.680Z,7.53
2019-03-23T01:27:14.421Z,7.33
2019-03-23T01:29:45.220Z,8.38
2019-03-23T01:32:15.194Z,7.33
2019-03-23T01:34:45.285Z,8.15
2019-03-23T01:37:15.220Z,14.70
2019-03-23T01:39:47.436Z,14.55
2019-03-23T01:42:17.543Z,8.28
2019-03-23T01:44:47.652Z,13.93
2019-03-23T01:47:19.669Z,8.80
2019-03-23T01:49:50.484Z,7.10
2019-03-23T01:52:30.112Z,6.65
2019-03-23T01:55:01.003Z,6.55
2019-03-23T01:57:32.848Z,11.25
2019-03-23T02:00:03.255Z,12.13
2019-03-23T02:02:35.136Z,8.53
2019-03-23T02:05:07.825Z,14.05
2019-03-23T02:07:39.872Z,14.33
2019-03-23T02:10:12.300Z,9.48
2019-03-23T02:12:42.132Z,10.65
2019-03-23T02:15:14.304Z,8.43
2019-03-23T02:17:45.116Z,13.55
2019-03-23T02:20:16.318Z,15.95
2019-03-23T02:22:46.440Z,9.58
2019-03-23T02:25:16.539Z,9.30
2019-03-23T02:27:46.686Z,7.50
2019-03-23T02:30:16.609Z,12.55
2019-03-23T02:32:49.341Z,13.68
2019-03-23T02:35:20.307Z,9.45
2019-03-23T02:37:53.025Z,9.65
2019-03-23T02:40:23.006Z,9.93
2019-03-23T02:42:58.453Z,8.50
2019-03-23T02:45:35.338Z,14.83
2019-03-23T02:48:05.542Z,19.87
2019-03-23T02:50:42.886Z,8.40
2019-03-23T02:53:12.879Z,12.07
2019-03-23T02:55:42.745Z,8.55
2019-03-23T02:58:15.062Z,9.18
2019-03-23T03:00:44.744Z,7.90
2019-03-23T03:03:17.466Z,9.68
2019-03-23T03:05:47.161Z,10.58
2019-03-23T03:08:16.865Z,11.48
2019-03-23T03:10:46.859Z,6.75
2019-03-23T03:13:16.714Z,8.23
2019-03-23T03:15:47.693Z,8.98
2019-03-23T03:18:18.464Z,9.80
2019-03-23T03:20:55.214Z,11.40
2019-03-23T03:23:25.067Z,15.98
2019-03-23T03:25:57.579Z,7.70
2019-03-23T03:28:27.685Z,9.65
2019-03-23T03:30:58.758Z,9.90
2019-03-23T03:33:30.589Z,9.45
2019-03-23T03:36:00.546Z,7.90
2019-03-23T03:38:31.575Z,8.93
2019-03-23T03:41:05.757Z,9.88
2019-03-23T03:43:35.858Z,8.88
2019-03-23T03:46:11.653Z,10.68
2019-03-23T03:48:41.340Z,10.03
2019-03-23T03:51:12.987Z,12.93
2019-03-23T03:53:43.960Z,12.45
2019-03-23T03:56:16.010Z,14.90
2019-03-23T03:58:46.462Z,11.90
2019-03-23T04:01:16.301Z,11.45
2019-03-23T04:03:53.154Z,11.65
2019-03-23T04:06:24.079Z,8.78
2019-03-23T04:09:02.221Z,13.22
2019-03-23T04:11:33.204Z,9.48
2019-03-23T04:14:03.158Z,21.75
2019-03-23T04:16:34.168Z,13.50
2019-03-23T04:19:14.226Z,13.30
2019-03-23T04:21:45.297Z,11.80
2019-03-23T04:24:19.376Z,15.38
2019-03-23T04:26:50.038Z,14.73
2019-03-23T04:29:19.867Z,13.58
2019-03-23T04:31:49.835Z,18.57
2019-03-23T04:34:22.341Z,11.38
2019-03-23T04:36:55.056Z,13.62
2019-03-23T04:39:27.204Z,15.10
2019-03-23T04:41:59.208Z,12.28
2019-03-23T04:44:29.577Z,11.18
2019-03-23T04:47:00.213Z,12.93
2019-03-23T04:49:30.176Z,14.60
2019-03-23T04:52:02.237Z,13.15
2019-03-23T04:54:32.064Z,13.62
2019-03-23T04:57:02.772Z,15.88
2019-03-23T04:59:40.496Z,15.03
2019-03-23T05:02:10.769Z,15.45
2019-03-23T05:04:40.867Z,13.32
2019-03-23T05:07:10.700Z,21.50
2019-03-23T05:09:40.504Z,16.25
2019-03-23T05:12:10.200Z,14.83
2019-03-23T05:14:39.924Z,16.50
2019-03-23T05:17:10.817Z,21.65
2019-03-23T05:19:47.084Z,18.10
2019-03-23T05:22:17.856Z,18.80
2019-03-23T05:24:47.813Z,16.90
2019-03-23T05:27:18.875Z,17.32
2019-03-23T05:29:49.927Z,17.77
2019-03-23T05:32:19.776Z,19.77
2019-03-23T05:34:50.765Z,17.60
2019-03-23T05:37:21.573Z,19.32
2019-03-23T05:39:52.548Z,20.52
2019-03-23T05:42:23.569Z,15.13
2019-03-23T05:45:00.445Z,19.42
2019-03-23T05:47:30.293Z,22.58
2019-03-23T05:50:01.229Z,17.07
2019-03-23T05:52:31.326Z,21.95
2019-03-23T05:55:01.461Z,20.62
2019-03-23T05:57:31.572Z,20.23
2019-03-23T06:00:05.655Z,18.42
2019-03-23T06:02:35.760Z,16.87
2019-03-23T06:05:06.859Z,17.62
2019-03-23T06:07:36.882Z,40.52
2019-03-23T06:10:10.829Z,23.20
2019-03-23T06:12:42.437Z,26.57
2019-03-23T06:15:12.685Z,26.85
2019-03-23T06:17:42.694Z,25.43
2019-03-23T06:20:13.882Z,19.48
2019-03-23T06:22:44.268Z,19.50
2019-03-23T06:25:15.113Z,19.55
2019-03-23T06:27:44.833Z,21.52
2019-03-23T06:30:18.663Z,21.68
2019-03-23T06:32:54.557Z,22.57
2019-03-23T06:35:25.648Z,20.55
2019-03-23T06:37:56.704Z,24.70
2019-03-23T06:40:26.827Z,28.65
2019-03-23T06:43:02.417Z,20.70
2019-03-23T06:45:32.149Z,26.80
2019-03-23T06:48:01.825Z,32.40
2019-03-23T06:50:31.525Z,28.27
2019-03-23T06:53:01.548Z,32.53
2019-03-23T06:55:31.604Z,27.97
2019-03-23T06:58:01.694Z,40.40
2019-03-23T07:00:31.628Z,30.13
2019-03-23T07:03:01.342Z,29.80
2019-03-23T07:05:31.041Z,29.73
2019-03-23T07:08:00.929Z,30.10
2019-03-23T07:10:30.606Z,31.13
2019-03-23T07:13:06.325Z,26.60
2019-03-23T07:15:36.021Z,32.70
2019-03-23T07:18:12.722Z,34.27
2019-03-23T07:20:43.518Z,33.03
2019-03-23T07:23:13.474Z,39.27
2019-03-23T07:25:43.587Z,29.60
2019-03-23T07:28:15.666Z,34.67
2019-03-23T07:30:45.766Z,38.47
2019-03-23T07:33:15.597Z,47.20
2019-03-23T07:35:45.321Z,36.50
2019-03-23T07:38:15.270Z,31.80
2019-03-23T07:40:48.398Z,27.97
2019-03-23T07:43:19.186Z,32.87
2019-03-23T07:45:49.214Z,36.07
2019-03-23T07:48:19.070Z,31.57
2019-03-23T07:50:51.281Z,23.83
2019-03-23T07:53:22.165Z,30.73
2019-03-23T07:55:57.873Z,28.07
2019-03-23T07:58:30.028Z,31.97
2019-03-23T08:01:00.112Z,27.73
2019-03-23T08:03:30.218Z,29.20
2019-03-23T08:06:00.384Z,26.37
2019-03-23T08:08:35.975Z,28.23
2019-03-23T08:11:05.766Z,23.67
2019-03-23T08:13:35.758Z,28.97
2019-03-23T08:16:05.877Z,29.73
2019-03-23T08:18:35.783Z,30.63
2019-03-23T08:21:06.774Z,28.97
2019-03-23T08:23:39.753Z,29.60
2019-03-23T08:26:15.700Z,21.03
2019-03-23T08:28:46.684Z,28.03
2019-03-23T08:31:16.484Z,32.93
2019-03-23T08:33:52.289Z,30.40
2019-03-23T08:36:22.258Z,26.90
2019-03-23T08:38:52.389Z,26.13
2019-03-23T08:41:22.236Z,26.73
2019-03-23T08:44:01.413Z,26.83
2019-03-23T08:46:31.566Z,25.97
2019-03-23T08:49:01.669Z,22.90
2019-03-23T08:51:31.776Z,31.73
2019-03-23T08:54:02.564Z,31.40
2019-03-23T08:56:41.465Z,30.07
2019-03-23T08:59:17.789Z,33.53
2019-03-23T09:01:50.914Z,29.97
2019-03-23T09:04:20.761Z,46.17
2019-03-23T09:06:50.861Z,28.13
2019-03-23T09:09:30.037Z,30.33
2019-03-23T09:12:00.756Z,26.17
2019-03-23T09:14:37.161Z,26.57
2019-03-23T09:17:08.673Z,28.90
2019-03-23T09:19:39.500Z,36.67
2019-03-23T09:22:13.501Z,32.37
2019-03-23T09:24:45.487Z,31.13
2019-03-23T09:27:15.601Z,32.50
2019-03-23T09:29:45.441Z,29.00
2019-03-23T09:32:15.209Z,40.10
2019-03-23T09:34:46.787Z,41.20
2019-03-23T09:37:16.817Z,44.00
2019-03-23T09:39:46.561Z,38.13
2019-03-23T09:42:16.545Z,34.00
2019-03-23T09:44:46.646Z,38.20
2019-03-23T09:47:16.821Z,35.20
2019-03-23T09:49:47.920Z,38.70
2019-03-23T09:52:17.747Z,34.70
2019-03-23T09:54:48.669Z,39.93
2019-03-23T09:57:18.501Z,34.67
2019-03-23T09:59:48.200Z,33.10
2019-03-23T10:02:17.893Z,38.83
2019-03-23T10:04:47.599Z,32.43
2019-03-23T10:07:17.325Z,33.90
2019-03-23T10:09:47.285Z,35.63
2019-03-23T10:12:17.397Z,39.77
2019-03-23T10:14:47.513Z,41.27
2019-03-23T10:17:17.617Z,37.77
2019-03-23T10:19:47.465Z,47.43
2019-03-23T10:22:17.436Z,41.20
2019-03-23T10:24:47.542Z,43.10
2019-03-23T10:27:17.469Z,39.97
2019-03-23T10:29:47.481Z,36.20
2019-03-23T10:32:18.477Z,41.53
2019-03-23T10:34:58.658Z,40.53
2019-03-23T10:37:28.599Z,37.20
2019-03-23T10:39:58.298Z,47.07
2019-03-23T10:42:28.221Z,37.03
2019-03-23T10:45:01.316Z,39.00
2019-03-23T10:47:31.149Z,46.43
2019-03-23T10:50:01.206Z,40.27
2019-03-23T10:52:37.421Z,37.33
2019-03-23T10:55:14.462Z,42.97
2019-03-23T10:57:50.264Z,39.60
2019-03-23T11:00:20.245Z,34.53
2019-03-23T11:02:50.361Z,32.70
2019-03-23T11:05:20.540Z,28.57
2019-03-23T11:07:50.657Z,26.67
2019-03-23T11:10:20.565Z,29.30
2019-03-23T11:12:50.560Z,32.40
2019-03-23T11:15:20.689Z,30.23
2019-03-23T11:17:51.681Z,29.10
2019-03-23T11:20:37.174Z,32.77
2019-03-23T11:23:26.614Z,25.50
2019-03-23T11:25:59.810Z,27.93
2019-03-23T11:28:29.640Z,29.57
2019-03-23T11:31:02.861Z,23.10
2019-03-23T11:33:32.977Z,18.73
2019-03-23T11:36:09.064Z,25.50
2019-03-23T11:38:58.505Z,27.90
2019-03-23T11:41:34.681Z,23.50
2019-03-23T11:44:05.757Z,26.63
2019-03-23T11:46:35.865Z,25.03
2019-03-23T11:49:06.035Z,26.37
2019-03-23T11:51:37.821Z,36.50
2019-03-23T11:54:07.521Z,29.17
2019-03-23T11:56:37.258Z,27.50
2019-03-23T11:59:26.582Z,27.33
2019-03-23T12:01:56.429Z,26.93
2019-03-23T12:04:27.223Z,24.07
2019-03-23T12:06:57.045Z,23.07
2019-03-23T12:09:28.165Z,25.63
2019-03-23T12:11:59.813Z,32.37
2019-03-23T12:14:29.929Z,26.83
2019-03-23T12:16:59.789Z,24.07
2019-03-23T12:19:31.481Z,24.57
2019-03-23T12:22:01.580Z,27.10
2019-03-23T12:24:31.713Z,31.00
2019-03-23T12:27:03.341Z,29.53
2019-03-23T12:29:33.301Z,26.60
2019-03-23T12:32:22.773Z,23.50
2019-03-23T12:34:52.881Z,25.70
2019-03-23T12:37:23.677Z,29.43
2019-03-23T12:39:53.386Z,26.97
2019-03-23T12:42:23.357Z,24.83
2019-03-23T12:44:53.490Z,27.00
2019-03-23T12:47:23.594Z,29.47
2019-03-23T12:49:59.201Z,25.00
2019-03-23T12:52:31.086Z,28.47
2019-03-23T12:55:01.190Z,29.40
2019-03-23T12:57:32.061Z,28.57
2019-03-23T13:00:02.021Z,27.23
2019-03-23T13:02:35.377Z,25.00
2019-03-23T13:05:07.769Z,31.70
2019-03-23T13:07:37.617Z,27.50
2019-03-23T13:10:12.689Z,29.43
2019-03-23T13:12:42.801Z,24.93
2019-03-23T13:15:17.936Z,25.37
2019-03-23T13:17:48.054Z,28.33
2019-03-23T13:20:19.942Z,31.33
2019-03-23T13:22:49.658Z,25.40
2019-03-23T13:25:19.626Z,30.10
2019-03-23T13:27:49.477Z,27.13
2019-03-23T13:30:25.199Z,26.23
2019-03-23T13:32:55.034Z,33.40
2019-03-23T13:35:29.713Z,34.10
2019-03-23T13:38:00.685Z,30.90
2019-03-23T13:40:30.808Z,26.50
2019-03-23T13:43:03.758Z,34.20
2019-03-23T13:45:42.356Z,28.30
2019-03-23T13:48:05.065Z,32.10
2019-03-23T13:50:35.038Z,33.63
2019-03-23T13:53:05.813Z,29.30
2019-03-23T13:55:41.825Z,29.43
2019-03-23T13:58:15.617Z,31.63
2019-03-23T14:00:46.689Z,31.30
2019-03-23T14:03:16.521Z,32.67
2019-03-23T14:05:47.461Z,32.87
2019-03-23T14:08:19.897Z,24.30
2019-03-23T14:10:55.848Z,29.23
2019-03-23T14:13:27.738Z,38.17
2019-03-23T14:15:57.105Z,25.23
2019-03-23T14:18:27.713Z,31.87
2019-03-23T14:20:57.677Z,34.13
2019-03-23T14:23:33.645Z,26.53
2019-03-23T14:26:03.750Z,29.47
2019-03-23T14:28:37.630Z,28.57
2019-03-23T14:31:07.596Z,25.70
2019-03-23T14:33:37.716Z,30.90
2019-03-23T14:36:08.404Z,30.77
2019-03-23T14:38:45.048Z,30.47
2019-03-23T14:41:15.945Z,27.17
2019-03-23T14:43:46.739Z,27.90
2019-03-23T14:46:16.423Z,29.97
2019-03-23T14:48:47.097Z,28.67
2019-03-23T14:51:16.789Z,34.10
2019-03-23T14:53:48.701Z,31.03
2019-03-23T14:56:18.545Z,26.07
2019-03-23T14:58:50.213Z,32.03
2019-03-23T15:01:20.233Z,30.60
2019-03-23T15:03:56.217Z,39.80
2019-03-23T15:06:27.952Z,29.20
2019-03-23T15:08:57.644Z,27.23
2019-03-23T15:11:33.270Z,30.27
2019-03-23T15:14:03.274Z,31.93
2019-03-23T15:16:33.390Z,32.33
2019-03-23T15:19:04.432Z,35.57
2019-03-23T15:21:34.265Z,29.20
2019-03-23T15:24:04.305Z,33.90
2019-03-23T15:26:34.537Z,35.33
2019-03-23T15:29:07.645Z,40.53
2019-03-23T15:31:37.613Z,35.07
2019-03-23T15:34:08.257Z,36.77
2019-03-23T15:36:38.313Z,42.33
2019-03-23T15:39:08.808Z,57.90
2019-03-23T15:41:38.789Z,36.40
2019-03-23T15:44:09.057Z,42.20
2019-03-23T15:46:38.901Z,40.30
2019-03-23T15:49:08.865Z,43.03
2019-03-23T15:51:53.705Z,39.67
2019-03-23T15:54:23.935Z,40.40
2019-03-23T15:56:54.213Z,47.80
2019-03-23T15:59:24.337Z,44.53
2019-03-23T16:01:55.493Z,62.83
2019-03-23T16:04:27.577Z,67.53
2019-03-23T16:06:57.681Z,63.13
2019-03-23T16:09:27.909Z,52.83
2019-03-23T16:11:57.782Z,67.80
2019-03-23T16:14:31.425Z,86.03
2019-03-23T16:17:01.574Z,50.43
2019-03-23T16:19:31.681Z,54.73
2019-03-23T16:22:07.473Z,50.60
2019-03-23T16:24:43.437Z,49.70
2019-03-23T16:27:13.574Z,47.90
2019-03-23T16:29:43.709Z,81.63
2019-03-23T16:32:15.437Z,73.10
2019-03-23T16:34:54.976Z,58.80
2019-03-23T16:37:24.905Z,68.60
2019-03-23T16:40:09.517Z,63.53
2019-03-23T16:42:45.651Z,244.40
2019-03-23T16:45:14.335Z,50.33
2019-03-23T16:47:44.473Z,47.63
2019-03-23T16:50:15.573Z,48.03
2019-03-23T16:52:45.693Z,55.03
2019-03-23T16:55:15.541Z,44.10
2019-03-23T16:57:45.513Z,50.43
2019-03-23T17:00:17.650Z,44.57
2019-03-23T17:02:49.557Z,46.87
2019-03-23T17:05:20.397Z,49.93
2019-03-23T17:07:51.329Z,50.50
2019-03-23T17:10:21.625Z,50.30
2019-03-23T17:12:55.585Z,41.93
2019-03-23T17:15:44.043Z,50.23
2019-03-23T17:18:16.114Z,48.40
2019-03-23T17:20:47.446Z,45.40
2019-03-23T17:23:17.357Z,45.67
2019-03-23T17:25:47.069Z,38.77
2019-03-23T17:28:17.765Z,50.07
2019-03-23T17:30:47.804Z,48.60
2019-03-23T17:33:17.649Z,56.60
2019-03-23T17:35:48.273Z,54.30
2019-03-23T17:38:18.011Z,40.80
2019-03-23T17:40:47.726Z,52.33
2019-03-23T17:43:17.581Z,54.80
2019-03-23T17:45:47.306Z,46.97
2019-03-23T17:48:17.011Z,41.30
2019-03-23T17:50:46.999Z,47.83
2019-03-23T17:53:16.846Z,35.47
2019-03-23T17:55:46.879Z,44.33
2019-03-23T17:58:22.855Z,49.40
2019-03-23T18:01:00.018Z,34.23
2019-03-23T18:03:30.072Z,42.63
2019-03-23T18:06:06.143Z,38.97
2019-03-23T18:08:46.225Z,36.93
2019-03-23T18:11:16.058Z,41.57
2019-03-23T18:13:46.041Z,51.47
2019-03-23T18:16:15.878Z,48.40
2019-03-23T18:18:45.923Z,37.03
2019-03-23T18:21:15.789Z,29.83
2019-03-23T18:23:45.847Z,37.10
2019-03-23T18:26:15.733Z,28.80
2019-03-23T18:28:45.695Z,26.27
2019-03-23T18:31:15.557Z,29.13
2019-03-23T18:33:47.655Z,34.43
2019-03-23T18:36:24.518Z,28.23
2019-03-23T18:38:54.477Z,32.17
2019-03-23T18:41:24.357Z,22.77
2019-03-23T18:43:57.005Z,19.70
2019-03-23T18:46:27.241Z,20.67
2019-03-23T18:48:57.355Z,21.70
2019-03-23T18:51:33.314Z,17.50
2019-03-23T18:54:09.613Z,21.40
2019-03-23T18:56:41.693Z,27.57
2019-03-23T18:59:11.878Z,27.53
2019-03-23T19:01:44.667Z,27.33
2019-03-23T19:04:14.505Z,31.53
2019-03-23T19:06:48.511Z,21.80
2019-03-23T19:09:39.953Z,22.90
2019-03-23T19:12:10.091Z,29.93
2019-03-23T19:14:46.909Z,19.63
2019-03-23T19:17:17.721Z,29.17
2019-03-23T19:19:48.655Z,24.33
2019-03-23T19:22:28.030Z,20.50
2019-03-23T19:25:15.197Z,25.43
2019-03-23T19:27:37.277Z,22.53
2019-03-23T19:30:08.856Z,19.83
2019-03-23T19:32:39.759Z,17.27
2019-03-23T19:35:15.289Z,26.07
2019-03-23T19:37:48.289Z,34.83
2019-03-23T19:40:18.421Z,20.70
2019-03-23T19:42:54.031Z,20.63
2019-03-23T19:45:24.272Z,38.33
2019-03-23T19:47:55.022Z,64.80
2019-03-23T19:50:37.154Z,53.20
2019-03-23T19:53:08.935Z,41.13
2019-03-23T19:55:45.888Z,38.20
2019-03-23T19:58:15.754Z,38.63
2019-03-23T20:00:54.715Z,32.03
2019-03-23T20:03:24.821Z,33.30
2019-03-23T20:05:54.918Z,37.57
2019-03-23T20:08:25.658Z,39.93
2019-03-23T20:10:55.801Z,68.40
2019-03-23T20:13:25.942Z,45.10
2019-03-23T20:15:56.681Z,43.53
2019-03-23T20:18:32.519Z,45.47
2019-03-23T20:21:02.646Z,45.60
2019-03-23T20:23:38.993Z,54.03
2019-03-23T20:26:09.097Z,43.03
2019-03-23T20:28:39.203Z,44.97
2019-03-23T20:31:10.513Z,42.63
2019-03-23T20:33:40.613Z,34.40
2019-03-23T20:36:10.485Z,42.00
2019-03-23T20:38:50.146Z,31.33
2019-03-23T20:41:30.341Z,25.37
2019-03-23T20:44:09.156Z,27.80
2019-03-23T20:46:33.305Z,25.43
2019-03-23T20:49:03.145Z,23.73
2019-03-23T20:51:34.024Z,23.77
2019-03-23T20:54:05.293Z,26.60
2019-03-23T20:56:35.398Z,33.27
2019-03-23T20:59:13.221Z,29.00
2019-03-23T21:01:43.066Z,31.10
2019-03-23T21:04:13.059Z,29.20
2019-03-23T21:06:43.164Z,31.03
2019-03-23T21:09:13.251Z,33.70
2019-03-23T21:11:43.437Z,36.63
2019-03-23T21:14:20.106Z,27.97
2019-03-23T21:16:47.221Z,36.70
2019-03-23T21:19:18.065Z,30.87
2019-03-23T21:21:48.166Z,35.83
2019-03-23T21:24:28.535Z,22.97
2019-03-23T21:26:58.387Z,32.10
2019-03-23T21:29:28.097Z,29.70
2019-03-23T21:31:58.150Z,37.13
2019-03-23T21:34:27.981Z,52.80
2019-03-23T21:36:57.973Z,39.90
2019-03-23T21:39:27.810Z,38.20
2019-03-23T21:41:59.663Z,36.63
2019-03-23T21:44:31.450Z,46.43
2019-03-23T21:47:02.692Z,35.83
2019-03-23T21:49:34.913Z,34.30
2019-03-23T21:52:13.709Z,28.63
2019-03-23T21:54:43.695Z,38.60
2019-03-23T21:57:13.790Z,35.20
2019-03-23T21:59:43.921Z,30.43
2019-03-23T22:02:14.029Z,41.20
2019-03-23T22:04:44.128Z,35.80
2019-03-23T22:07:14.245Z,46.70
2019-03-23T22:09:44.097Z,33.40
2019-03-23T22:12:14.075Z,34.93
2019-03-23T22:14:43.905Z,34.90
2019-03-23T22:17:13.941Z,38.07
2019-03-23T22:19:51.839Z,49.60
2019-03-23T22:22:27.976Z,34.27
2019-03-23T22:24:58.481Z,29.87
2019-03-23T22:27:28.403Z,42.40
2019-03-23T22:29:58.434Z,40.17
2019-03-23T22:32:28.269Z,36.60
2019-03-23T22:35:00.882Z,33.37
2019-03-23T22:37:30.853Z,28.70
2019-03-23T22:40:00.969Z,45.57
2019-03-23T22:42:30.817Z,33.00
2019-03-23T22:45:00.531Z,28.70
2019-03-23T22:47:30.502Z,32.38
2019-03-23T22:50:01.448Z,32.57
2019-03-23T22:52:31.429Z,37.77
2019-03-23T22:55:02.482Z,33.90
2019-03-23T22:57:32.595Z,37.40
2019-03-23T23:00:02.438Z,35.08
2019-03-23T23:02:32.407Z,41.30
2019-03-23T23:05:02.262Z,43.75
2019-03-23T23:07:32.945Z,47.03
2019-03-23T23:10:09.395Z,52.58
2019-03-23T23:12:39.501Z,34.27
2019-03-23T23:15:21.738Z,42.53
2019-03-23T23:17:58.856Z,53.17
2019-03-23T23:20:28.969Z,49.98
2019-03-23T23:23:01.061Z,48.10
2019-03-23T23:25:33.101Z,61.47
2019-03-23T23:28:05.359Z,50.67
2019-03-23T23:30:37.355Z,66.07
2019-03-23T23:33:07.313Z,64.13
2019-03-23T23:35:38.201Z,92.02
2019-03-23T23:38:08.329Z,84.23
2019-03-23T23:40:38.177Z,73.90
2019-03-23T23:43:09.821Z,89.30
2019-03-23T23:45:45.170Z,84.67
2019-03-23T23:48:16.041Z,73.50
2019-03-23T23:50:45.978Z,78.70
2019-03-23T23:53:15.762Z,89.20
2019-03-23T23:55:45.842Z,82.30
2019-03-23T23:58:15.737Z,74.57
